Time;durP1;ratioP1;P1;durP2;ratioP2;P2;SDS_P1;SDS_P2;PMS_P1;PMS_P2;Temp;Humidity;BMP_temperature;BMP_pressure;BME280_temperature;BME280_humidity;BME280_pressure;Samples;Min_cycle;Max_cycle;Signal;HPM_P1;HPM_P2
2021/06/16 00:01:08;;;;;;;4.15;3.85;;;;;;;19.20;62.11;94195.58;828680;71;29719;-83
2021/06/16 00:16:15;;;;;;;4.70;4.40;;;;;;;19.23;62.19;94177.61;834292;71;32736;-82
2021/06/16 00:31:10;;;;;;;4.55;4.15;;;;;;;19.28;62.09;94165.91;828306;71;30272;-82
2021/06/16 00:46:16;;;;;;;4.40;4.10;;;;;;;19.28;62.00;94152.61;829333;70;32688;-83
2021/06/16 01:01:19;;;;;;;4.40;4.00;;;;;;;19.31;61.96;94150.02;823481;71;32640;-81
2021/06/16 01:16:12;;;;;;;3.75;3.55;;;;;;;19.30;61.82;94128.54;828385;71;30372;-82
2021/06/16 01:31:19;;;;;;;4.28;3.98;;;;;;;19.32;61.83;94139.59;828882;71;32667;-82
2021/06/16 01:46:10;;;;;;;4.30;4.00;;;;;;;19.36;61.84;94135.66;829038;71;30779;-81
2021/06/16 02:01:22;;;;;;;4.33;4.03;;;;;;;19.37;61.86;94129.22;828264;71;32692;-82
2021/06/16 02:16:15;;;;;;;4.50;4.20;;;;;;;19.28;61.95;94135.31;828827;71;30864;-82
2021/06/16 02:31:13;;;;;;;4.50;4.10;;;;;;;19.29;61.97;94139.52;828827;71;32073;-83
2021/06/16 02:46:14;;;;;;;4.30;4.00;;;;;;;19.30;61.98;94144.50;793643;74;32900;-83
2021/06/16 03:16:10;;;;;;;4.40;4.00;;;;;;;19.27;61.99;94144.42;828438;71;30748;-82
2021/06/16 03:31:18;;;;;;;4.30;3.92;;;;;;;19.33;61.79;94155.00;827632;71;33453;-84
2021/06/16 03:46:10;;;;;;;4.45;4.15;;;;;;;19.85;60.73;94164.33;828570;71;30324;-82
2021/06/16 04:01:17;;;;;;;4.28;3.95;;;;;;;20.06;60.12;94168.47;834511;71;32623;-83
2021/06/16 04:16:10;;;;;;;4.40;4.05;;;;;;;20.13;60.64;94171.23;794100;74;30416;-83
2021/06/16 04:31:11;;;;;;;4.70;4.40;;;;;;;20.98;59.31;94185.06;834712;71;29644;-85
2021/06/16 04:46:19;;;;;;;5.10;4.60;;;;;;;21.77;56.36;94169.97;801048;74;32817;-85
2021/06/16 05:01:16;;;;;;;4.67;4.37;;;;;;;23.11;53.61;94187.81;823963;71;33392;-85
2021/06/16 05:16:33;;;;;;;4.90;4.50;;;;;;;24.65;50.46;94190.08;832426;70;32731;-92
2021/06/16 05:31:09;;;;;;;4.00;3.70;;;;;;;24.54;49.06;94197.56;835020;71;29781;-79
2021/06/16 05:46:15;;;;;;;4.47;4.17;;;;;;;24.73;48.02;94211.14;827879;71;32830;-80
2021/06/16 06:01:17;;;;;;;4.37;4.07;;;;;;;24.13;49.55;94206.54;834450;71;32823;-80
2021/06/16 06:16:08;;;;;;;4.43;4.07;;;;;;;24.29;49.19;94208.27;834105;71;30173;-78
2021/06/16 06:31:19;;;;;;;4.43;4.13;;;;;;;24.04;49.84;94222.22;827770;71;32696;-78
2021/06/16 06:46:14;;;;;;;5.07;4.57;;;;;;;24.08;49.76;94229.69;834166;71;32760;-79
2021/06/16 07:01:10;;;;;;;5.00;4.60;;;;;;;23.79;50.72;94242.45;829609;71;30190;-79
2021/06/16 07:16:09;;;;;;;5.23;4.73;;;;;;;24.27;50.01;94244.09;834167;71;29725;-80
2021/06/16 07:31:15;;;;;;;5.47;4.87;;;;;;;25.03;48.78;94241.41;827477;71;32632;-80
2021/06/16 07:46:14;;;;;;;4.60;4.30;;;;;;;25.82;47.46;94214.30;834735;71;33284;-79
2021/06/16 08:01:09;;;;;;;4.70;4.40;;;;;;;26.73;44.54;94123.91;823632;71;30350;-78
2021/06/16 08:16:20;;;;;;;4.70;4.40;;;;;;;27.64;43.04;123554.15;827614;71;32693;-78
2021/06/16 08:31:16;;;;;;;5.80;5.27;;;;;;;27.56;42.58;94255.05;827508;71;33195;-80
2021/06/16 08:46:19;;;;;;;5.37;4.90;;;;;;;27.13;43.09;94254.89;821167;71;33233;-76
2021/06/16 09:16:09;;;;;;;5.50;5.10;;;;;;;;;;828744;71;30343;-81
2021/06/16 09:31:23;;;;;;;5.20;4.90;;;;;;;26.16;45.02;165566.45;828315;71;30269;-80
2021/06/16 09:46:11;;;;;;;5.53;5.13;;;;;;;25.80;46.23;94285.93;820635;71;29777;-79
2021/06/16 10:01:16;;;;;;;4.80;4.50;;;;;;;25.95;45.94;94295.50;828413;70;32621;-82
2021/06/16 10:16:09;;;;;;;5.67;5.17;;;;;;;25.76;47.45;94310.13;819215;71;30269;-80
2021/06/16 10:31:17;;;;;;;6.30;5.70;;;;;;;26.02;47.00;94299.32;827459;71;33794;-81
2021/06/16 10:46:13;;;;;;;4.90;4.60;;;;;;;;;;823024;71;33480;-81
2021/06/16 11:01:10;;;;;;;5.00;4.70;;;;;;;;;;826164;71;29808;-82
2021/06/16 11:16:45;;;;;;;7.80;7.10;;;;;;;27.94;42.68;94296.23;827700;71;33208;-81
2021/06/16 11:31:16;;;;;;;5.53;5.13;;;;;;;28.06;41.24;94284.70;828667;71;32117;-80
2021/06/16 11:46:30;;;;;;;4.43;4.10;;;;;;;27.14;39.79;94277.20;823783;71;32743;-84
2021/06/16 12:01:17;;;;;;;4.23;3.93;;;;;;;25.72;42.85;94216.81;828067;71;32666;-83
2021/06/16 12:16:30;;;;;;;4.03;3.83;;;;;;;25.04;44.15;94294.73;834736;71;32811;-83
2021/06/16 12:31:28;;;;;;;4.40;4.10;;;;;;;25.01;44.59;94291.47;834366;71;33112;-78
2021/06/16 12:46:15;;;;;;;4.13;3.83;;;;;;;24.53;45.64;94308.73;827591;71;32715;-75
2021/06/16 13:01:12;;;;;;;5.00;4.70;;;;;;;24.51;51.29;94318.28;828300;71;30279;-81
2021/06/16 13:16:29;;;;;;;6.53;6.03;;;;;;;24.89;54.02;94325.41;835259;71;33476;-78
2021/06/16 13:31:23;;;;;;;6.50;6.00;;;;;;;25.07;53.24;94322.15;829476;71;30282;-81
2021/06/16 13:46:10;;;;;;;5.90;5.40;;;;;;;24.97;54.28;94313.52;828766;71;30313;-79
2021/06/16 14:01:08;;;;;;;6.33;5.83;;;;;;;25.18;52.60;94309.48;825172;71;29747;-79
2021/06/16 14:16:11;;;;;;;7.60;5.50;;;;;;;24.82;52.58;94303.92;824603;71;30333;-83
2021/06/16 14:31:12;;;;;;;6.13;5.53;;;;;;;24.55;53.35;94297.59;828466;71;30258;-82
2021/06/16 14:46:09;;;;;;;7.00;6.30;;;;;;;24.38;54.42;94291.03;828931;71;30915;-82
2021/06/16 15:16:17;;;;;;;7.87;6.77;;;;;;;24.25;54.39;94279.91;834960;71;32765;-81
2021/06/16 15:31:14;;;;;;;6.30;5.80;;;;;;;24.41;53.41;94278.19;794318;74;32143;-83
2021/06/16 15:46:08;;;;;;;5.90;5.50;;;;;;;24.31;53.41;94295.82;834432;71;29796;-80
2021/06/16 16:01:08;;;;;;;5.30;4.90;;;;;;;24.26;53.57;94316.30;834476;71;30189;-80
2021/06/16 16:16:25;;;;;;;5.40;5.00;;;;;;;24.06;51.05;94341.90;834896;71;33494;-84
2021/06/16 16:31:17;;;;;;;4.90;4.50;;;;;;;23.88;50.42;94347.95;828239;71;32829;-80
2021/06/16 16:46:08;;;;;;;5.03;4.73;;;;;;;23.81;50.50;94365.92;834513;71;29797;-76
2021/06/16 17:01:16;;;;;;;5.70;5.20;;;;;;;23.39;49.44;94375.97;822727;70;33355;-78
2021/06/16 17:16:17;;;;;;;5.97;5.37;;;;;;;23.18;53.05;94387.31;827920;71;32737;-80
2021/06/16 18:02:00;;;;;;;7.80;7.10;;;;;;;22.39;58.46;94423.98;820511;72;32924;-81
2021/06/16 18:31:19;;;;;;;7.03;5.67;;;;;;;21.75;59.72;94447.94;818824;71;32774;-76
2021/06/16 18:46:45;;;;;;;8.33;7.53;;;;;;;21.55;60.76;94459.27;815696;72;32772;-78
2021/06/16 19:01:12;;;;;;;6.20;5.70;;;;;;;21.43;61.07;94472.81;834700;71;32039;-77
2021/06/16 19:16:09;;;;;;;6.50;5.90;;;;;;;21.35;61.79;94488.70;828492;71;29845;-76
2021/06/16 19:31:08;;;;;;;6.62;6.05;;;;;;;21.31;62.38;94505.22;828426;71;29715;-75
2021/06/16 19:46:33;;;;;;;7.22;6.53;;;;;;;21.28;62.85;94551.87;827548;70;32817;-79
2021/06/16 20:01:10;;;;;;;5.70;5.20;;;;;;;21.79;63.87;94595.11;828563;71;29686;-87
2021/06/16 20:16:09;;;;;;;4.57;4.10;;;;;;;21.33;66.55;94623.63;828452;71;31190;-81
2021/06/16 20:31:19;;;;;;;4.13;3.83;;;;;;;21.83;66.63;94627.80;827335;71;32658;-81
2021/06/16 20:46:15;;;;;;;5.60;4.07;;;;;;;21.55;68.07;94597.59;833882;71;32661;-79
2021/06/16 21:16:15;;;;;;;4.00;3.77;;;;;;;22.09;66.49;94571.72;827615;71;32646;-82
2021/06/16 21:31:08;;;;;;;5.13;4.13;;;;;;;22.46;65.57;94565.02;828527;71;30055;-79
2021/06/16 21:46:09;;;;;;;4.63;4.33;;;;;;;22.63;65.69;94573.05;834323;71;29701;-80
2021/06/16 22:01:11;;;;;;;5.47;5.00;;;;;;;22.79;64.96;94587.05;829162;71;31442;-81
2021/06/16 22:16:08;;;;;;;5.07;4.70;;;;;;;22.71;64.90;94608.12;835999;71;30004;-81
2021/06/16 22:31:21;;;;;;;4.80;4.40;;;;;;;22.71;64.10;94611.59;828256;71;32641;-83
2021/06/16 22:46:08;;;;;;;5.80;4.90;;;;;;;22.76;64.27;94619.87;830372;71;30023;-81
2021/06/16 23:01:16;;;;;;;4.77;4.40;;;;;;;22.76;64.54;94619.29;827058;71;32776;-80
2021/06/16 23:16:29;;;;;;;5.00;4.60;;;;;;;22.73;64.43;94629.94;829337;70;32722;-82
2021/06/16 23:31:15;;;;;;;6.57;5.97;;;;;;;22.71;64.79;94636.22;828000;71;32710;-86
2021/06/16 23:46:15;;;;;;;5.70;5.30;;;;;;;21.26;70.15;94630.19;829285;71;32707;-84
